Glen Haven, Colorado
Current Conditions -  °F | °C
As of 4:15 PM on Sunday 21 Dec 2014 (Local Time) from KFNL Reporting Station
Clear Clear  
Wind Chill: 52°   Ceiling: Unl
Heat Index: 52°   Visibility: 10mi
Dew Point: 27°   Wind: 22mph
Humidity: 38%   Direction: 320°NW
Pressure: 29.54"   Gusts: 29mph
Location:  40.45°N, 105.45°W
Report Text: KFNL 212315Z AUTO 32019G25KT 10SM CLR 11/M03 A2954 RMK AO1
Loading
Personal Weather Stations






























Interactive Weather Map New forecast layout! Learn more

10-Day Weather Forecast

Advertisements
Track Severe Weather on mobile